sensor_id;sensor_type;location;lat;lon;timestamp;P1;durP1;ratioP1;P2;durP2;ratioP2
12888;SDS011;56848;49.896;11.424;2022-11-20T05:01:40;38.00;;;14.27;;
12888;SDS011;56848;49.896;11.424;2022-11-20T05:04:06;33.43;;;14.07;;
12888;SDS011;56848;49.896;11.424;2022-11-20T05:06:31;30.93;;;13.17;;
12888;SDS011;56848;49.896;11.424;2022-11-20T05:08:57;35.10;;;14.50;;
12888;SDS011;56848;49.896;11.424;2022-11-20T05:11:23;30.23;;;14.13;;
12888;SDS011;56848;49.896;11.424;2022-11-20T05:13:49;28.95;;;12.70;;
12888;SDS011;56848;49.896;11.424;2022-11-20T05:16:17;35.67;;;13.18;;
12888;SDS011;56848;49.896;11.424;2022-11-20T05:18:44;32.05;;;14.60;;
12888;SDS011;56848;49.896;11.424;2022-11-20T05:21:10;30.20;;;12.93;;
12888;SDS011;56848;49.896;11.424;2022-11-20T05:23:37;27.15;;;12.63;;
12888;SDS011;56848;49.896;11.424;2022-11-20T05:26:03;35.63;;;14.98;;
12888;SDS011;56848;49.896;11.424;2022-11-20T05:28:30;34.25;;;14.10;;
12888;SDS011;56848;49.896;11.424;2022-11-20T05:31:03;29.15;;;13.20;;
12888;SDS011;56848;49.896;11.424;2022-11-20T05:33:33;34.80;;;14.40;;
12888;SDS011;56848;49.896;11.424;2022-11-20T05:35:59;27.50;;;13.65;;
12888;SDS011;56848;49.896;11.424;2022-11-20T05:38:25;28.77;;;14.00;;
12888;SDS011;56848;49.896;11.424;2022-11-20T05:40:50;29.50;;;12.73;;
12888;SDS011;56848;49.896;11.424;2022-11-20T05:43:16;33.00;;;14.80;;
12888;SDS011;56848;49.896;11.424;2022-11-20T05:45:41;31.10;;;13.40;;
12888;SDS011;56848;49.896;11.424;2022-11-20T05:48:07;32.30;;;15.30;;
12888;SDS011;56848;49.896;11.424;2022-11-20T05:50:33;31.67;;;13.40;;
12888;SDS011;56848;49.896;11.424;2022-11-20T05:52:58;28.43;;;12.90;;
12888;SDS011;56848;49.896;11.424;2022-11-20T05:55:25;29.73;;;13.80;;
12888;SDS011;56848;49.896;11.424;2022-11-20T05:57:52;30.90;;;13.55;;
12888;SDS011;56848;49.896;11.424;2022-11-20T06:00:20;32.72;;;14.75;;
12888;SDS011;56848;49.896;11.424;2022-11-20T06:02:46;32.37;;;15.00;;
12888;SDS011;56848;49.896;11.424;2022-11-20T06:05:11;29.53;;;14.10;;
12888;SDS011;56848;49.896;11.424;2022-11-20T06:07:37;29.03;;;13.03;;
12888;SDS011;56848;49.896;11.424;2022-11-20T06:10:03;30.70;;;14.47;;
12888;SDS011;56848;49.896;11.424;2022-11-20T06:12:30;30.03;;;13.40;;
12888;SDS011;56848;49.896;11.424;2022-11-20T06:14:56;35.30;;;15.75;;
12888;SDS011;56848;49.896;11.424;2022-11-20T06:17:22;33.80;;;14.50;;
12888;SDS011;56848;49.896;11.424;2022-11-20T06:19:47;31.80;;;14.47;;
12888;SDS011;56848;49.896;11.424;2022-11-20T06:22:13;28.00;;;13.00;;
12888;SDS011;56848;49.896;11.424;2022-11-20T06:24:38;29.43;;;14.60;;
12888;SDS011;56848;49.896;11.424;2022-11-20T06:27:04;30.63;;;14.13;;
12888;SDS011;56848;49.896;11.424;2022-11-20T06:29:29;31.87;;;13.83;;
12888;SDS011;56848;49.896;11.424;2022-11-20T06:31:55;28.63;;;13.47;;
12888;SDS011;56848;49.896;11.424;2022-11-20T06:34:20;28.30;;;14.03;;
12888;SDS011;56848;49.896;11.424;2022-11-20T06:36:46;32.40;;;14.97;;
12888;SDS011;56848;49.896;11.424;2022-11-20T06:39:11;30.60;;;14.00;;
12888;SDS011;56848;49.896;11.424;2022-11-20T06:41:37;32.50;;;15.27;;
12888;SDS011;56848;49.896;11.424;2022-11-20T06:44:03;29.97;;;13.73;;
12888;SDS011;56848;49.896;11.424;2022-11-20T06:46:30;34.47;;;14.50;;
12888;SDS011;56848;49.896;11.424;2022-11-20T06:48:56;25.03;;;13.33;;
12888;SDS011;56848;49.896;11.424;2022-11-20T06:51:23;32.33;;;13.63;;
12888;SDS011;56848;49.896;11.424;2022-11-20T06:53:48;31.70;;;14.50;;
12888;SDS011;56848;49.896;11.424;2022-11-20T06:56:14;32.73;;;14.73;;
12888;SDS011;56848;49.896;11.424;2022-11-20T06:58:39;30.27;;;14.50;;
12888;SDS011;56848;49.896;11.424;2022-11-20T07:01:06;30.97;;;14.97;;
12888;SDS011;56848;49.896;11.424;2022-11-20T07:03:34;32.60;;;13.95;;
12888;SDS011;56848;49.896;11.424;2022-11-20T07:06:02;27.73;;;14.02;;
12888;SDS011;56848;49.896;11.424;2022-11-20T07:08:28;33.55;;;15.68;;
12888;SDS011;56848;49.896;11.424;2022-11-20T07:10:58;35.42;;;15.00;;
12888;SDS011;56848;49.896;11.424;2022-11-20T07:13:25;29.98;;;14.32;;
12888;SDS011;56848;49.896;11.424;2022-11-20T07:15:51;33.10;;;14.25;;
12888;SDS011;56848;49.896;11.424;2022-11-20T07:18:17;29.70;;;14.20;;
12888;SDS011;56848;49.896;11.424;2022-11-20T07:20:43;26.10;;;13.50;;
12888;SDS011;56848;49.896;11.424;2022-11-20T07:23:08;33.13;;;15.03;;
12888;SDS011;56848;49.896;11.424;2022-11-20T07:25:34;34.87;;;14.40;;
12888;SDS011;56848;49.896;11.424;2022-11-20T07:28:00;38.17;;;15.80;;
12888;SDS011;56848;49.896;11.424;2022-11-20T07:30:26;32.55;;;14.00;;
12888;SDS011;56848;49.896;11.424;2022-11-20T07:32:53;31.00;;;14.48;;
12888;SDS011;56848;49.896;11.424;2022-11-20T07:35:19;32.92;;;16.30;;
12888;SDS011;56848;49.896;11.424;2022-11-20T07:37:45;30.83;;;14.90;;
12888;SDS011;56848;49.896;11.424;2022-11-20T07:40:12;31.98;;;15.30;;
12888;SDS011;56848;49.896;11.424;2022-11-20T07:42:38;29.42;;;14.32;;
12888;SDS011;56848;49.896;11.424;2022-11-20T07:45:04;28.17;;;14.50;;
12888;SDS011;56848;49.896;11.424;2022-11-20T07:47:34;34.08;;;15.25;;
12888;SDS011;56848;49.896;11.424;2022-11-20T07:50:01;30.42;;;13.85;;
12888;SDS011;56848;49.896;11.424;2022-11-20T07:52:27;33.70;;;14.27;;
12888;SDS011;56848;49.896;11.424;2022-11-20T07:54:53;38.35;;;16.80;;
12888;SDS011;56848;49.896;11.424;2022-11-20T07:57:19;34.60;;;16.03;;
12888;SDS011;56848;49.896;11.424;2022-11-20T07:59:44;38.80;;;17.33;;
12888;SDS011;56848;49.896;11.424;2022-11-20T08:02:11;34.67;;;15.90;;
12888;SDS011;56848;49.896;11.424;2022-11-20T08:04:36;37.10;;;16.23;;
12888;SDS011;56848;49.896;11.424;2022-11-20T08:07:02;35.20;;;16.73;;
12888;SDS011;56848;49.896;11.424;2022-11-20T08:09:27;30.00;;;14.50;;
12888;SDS011;56848;49.896;11.424;2022-11-20T08:11:53;30.15;;;15.85;;
12888;SDS011;56848;49.896;11.424;2022-11-20T08:14:38;29.15;;;13.75;;
12888;SDS011;56848;49.896;11.424;2022-11-20T08:17:03;34.67;;;15.03;;
12888;SDS011;56848;49.896;11.424;2022-11-20T08:19:29;38.27;;;17.10;;
12888;SDS011;56848;49.896;11.424;2022-11-20T08:21:55;32.42;;;16.08;;
12888;SDS011;56848;49.896;11.424;2022-11-20T08:24:21;35.10;;;14.90;;
12888;SDS011;56848;49.896;11.424;2022-11-20T08:26:46;31.93;;;16.00;;
12888;SDS011;56848;49.896;11.424;2022-11-20T08:29:12;37.67;;;15.50;;
12888;SDS011;56848;49.896;11.424;2022-11-20T08:31:37;33.80;;;16.30;;
12888;SDS011;56848;49.896;11.424;2022-11-20T08:34:03;36.80;;;15.77;;
12888;SDS011;56848;49.896;11.424;2022-11-20T08:36:28;35.00;;;16.87;;
12888;SDS011;56848;49.896;11.424;2022-11-20T08:38:57;33.42;;;15.07;;
12888;SDS011;56848;49.896;11.424;2022-11-20T08:41:23;37.40;;;16.33;;
12888;SDS011;56848;49.896;11.424;2022-11-20T08:43:48;36.10;;;16.37;;
12888;SDS011;56848;49.896;11.424;2022-11-20T08:46:15;34.10;;;16.35;;
12888;SDS011;56848;49.896;11.424;2022-11-20T08:48:41;33.10;;;16.92;;
12888;SDS011;56848;49.896;11.424;2022-11-20T08:51:08;28.35;;;14.35;;
12888;SDS011;56848;49.896;11.424;2022-11-20T08:53:33;27.93;;;14.73;;
12888;SDS011;56848;49.896;11.424;2022-11-20T08:55:59;33.00;;;15.30;;
12888;SDS011;56848;49.896;11.424;2022-11-20T08:58:25;39.77;;;16.57;;
12888;SDS011;56848;49.896;11.424;2022-11-20T09:00:51;32.55;;;15.85;;
12888;SDS011;56848;49.896;11.424;2022-11-20T09:03:17;32.78;;;16.00;;
12888;SDS011;56848;49.896;11.424;2022-11-20T09:05:43;33.80;;;16.40;;
12888;SDS011;56848;49.896;11.424;2022-11-20T09:08:08;33.70;;;15.53;;
12888;SDS011;56848;49.896;11.424;2022-11-20T09:10:34;39.50;;;19.00;;
12888;SDS011;56848;49.896;11.424;2022-11-20T09:13:00;38.33;;;16.70;;
12888;SDS011;56848;49.896;11.424;2022-11-20T09:15:26;31.55;;;15.45;;
12888;SDS011;56848;49.896;11.424;2022-11-20T09:17:56;30.92;;;15.75;;
12888;SDS011;56848;49.896;11.424;2022-11-20T09:20:23;30.30;;;14.55;;
12888;SDS011;56848;49.896;11.424;2022-11-20T09:22:49;32.40;;;14.87;;
12888;SDS011;56848;49.896;11.424;2022-11-20T09:25:15;32.27;;;14.93;;
12888;SDS011;56848;49.896;11.424;2022-11-20T09:27:41;32.15;;;14.98;;
12888;SDS011;56848;49.896;11.424;2022-11-20T09:30:09;32.35;;;15.38;;
12888;SDS011;56848;49.896;11.424;2022-11-20T09:32:35;32.47;;;15.60;;
12888;SDS011;56848;49.896;11.424;2022-11-20T09:35:00;30.70;;;15.00;;
12888;SDS011;56848;49.896;11.424;2022-11-20T09:37:26;30.42;;;14.15;;
12888;SDS011;56848;49.896;11.424;2022-11-20T09:39:52;30.03;;;14.80;;
12888;SDS011;56848;49.896;11.424;2022-11-20T09:42:24;30.43;;;15.17;;
12888;SDS011;56848;49.896;11.424;2022-11-20T09:45:20;28.50;;;14.40;;
12888;SDS011;56848;49.896;11.424;2022-11-20T09:56:27;32.25;;;15.07;;
12888;SDS011;56848;49.896;11.424;2022-11-20T09:58:54;34.50;;;16.80;;
12888;SDS011;56848;49.896;11.424;2022-11-20T10:01:26;33.30;;;16.00;;
12888;SDS011;56848;49.896;11.424;2022-11-20T10:03:59;38.70;;;15.98;;
12888;SDS011;56848;49.896;11.424;2022-11-20T10:06:43;36.25;;;15.95;;
12888;SDS011;56848;49.896;11.424;2022-11-20T10:11:48;28.23;;;14.57;;
12888;SDS011;56848;49.896;11.424;2022-11-20T10:17:58;28.83;;;13.00;;
12888;SDS011;56848;49.896;11.424;2022-11-20T10:20:48;29.55;;;12.80;;
12888;SDS011;56848;49.896;11.424;2022-11-20T10:26:42;30.42;;;12.48;;
12888;SDS011;56848;49.896;11.424;2022-11-20T10:29:34;23.48;;;12.05;;
12888;SDS011;56848;49.896;11.424;2022-11-20T10:32:24;26.20;;;11.50;;
12888;SDS011;56848;49.896;11.424;2022-11-20T10:35:00;29.23;;;12.33;;
12888;SDS011;56848;49.896;11.424;2022-11-20T10:37:33;21.48;;;11.43;;
12888;SDS011;56848;49.896;11.424;2022-11-20T10:42:37;39.17;;;17.85;;
12888;SDS011;56848;49.896;11.424;2022-11-20T10:47:49;22.60;;;10.70;;
12888;SDS011;56848;49.896;11.424;2022-11-20T10:50:20;22.15;;;11.65;;
12888;SDS011;56848;49.896;11.424;2022-11-20T10:53:05;24.27;;;12.00;;
12888;SDS011;56848;49.896;11.424;2022-11-20T10:56:38;25.15;;;12.60;;
12888;SDS011;56848;49.896;11.424;2022-11-20T11:01:15;24.77;;;10.85;;
12888;SDS011;56848;49.896;11.424;2022-11-20T11:03:43;16.70;;;9.63;;
12888;SDS011;56848;49.896;11.424;2022-11-20T11:08:58;25.27;;;12.35;;
12888;SDS011;56848;49.896;11.424;2022-11-20T11:11:32;21.73;;;11.30;;
12888;SDS011;56848;49.896;11.424;2022-11-20T11:19:06;19.90;;;9.50;;
12888;SDS011;56848;49.896;11.424;2022-11-20T11:21:37;18.13;;;8.60;;
12888;SDS011;56848;49.896;11.424;2022-11-20T11:24:14;15.30;;;8.57;;
12888;SDS011;56848;49.896;11.424;2022-11-20T11:26:56;17.17;;;9.20;;
12888;SDS011;56848;49.896;11.424;2022-11-20T11:29:29;15.70;;;8.65;;
12888;SDS011;56848;49.896;11.424;2022-11-20T11:34:36;13.00;;;7.90;;
12888;SDS011;56848;49.896;11.424;2022-11-20T11:37:02;15.03;;;8.37;;
12888;SDS011;56848;49.896;11.424;2022-11-20T11:39:29;15.27;;;8.47;;
12888;SDS011;56848;49.896;11.424;2022-11-20T11:41:58;13.43;;;7.50;;
12888;SDS011;56848;49.896;11.424;2022-11-20T11:44:28;15.93;;;8.20;;
12888;SDS011;56848;49.896;11.424;2022-11-20T11:47:25;19.07;;;9.07;;
12888;SDS011;56848;49.896;11.424;2022-11-20T11:50:02;15.33;;;8.10;;
12888;SDS011;56848;49.896;11.424;2022-11-20T11:55:46;15.85;;;8.27;;
12888;SDS011;56848;49.896;11.424;2022-11-20T12:04:05;15.40;;;8.00;;
12888;SDS011;56848;49.896;11.424;2022-11-20T12:07:00;15.40;;;8.25;;
12888;SDS011;56848;49.896;11.424;2022-11-20T12:09:41;11.90;;;7.47;;
12888;SDS011;56848;49.896;11.424;2022-11-20T12:12:18;14.97;;;7.30;;
12888;SDS011;56848;49.896;11.424;2022-11-20T12:14:47;13.82;;;7.22;;
12888;SDS011;56848;49.896;11.424;2022-11-20T12:17:16;14.77;;;7.72;;
12888;SDS011;56848;49.896;11.424;2022-11-20T12:19:42;17.33;;;8.02;;
12888;SDS011;56848;49.896;11.424;2022-11-20T12:30:14;12.23;;;7.20;;
12888;SDS011;56848;49.896;11.424;2022-11-20T12:35:40;12.50;;;6.70;;
12888;SDS011;56848;49.896;11.424;2022-11-20T12:39:29;13.67;;;6.90;;
12888;SDS011;56848;49.896;11.424;2022-11-20T12:56:15;10.68;;;6.57;;
12888;SDS011;56848;49.896;11.424;2022-11-20T12:59:15;12.60;;;6.50;;
12888;SDS011;56848;49.896;11.424;2022-11-20T13:07:38;10.30;;;6.15;;
12888;SDS011;56848;49.896;11.424;2022-11-20T13:10:10;6.78;;;4.43;;
12888;SDS011;56848;49.896;11.424;2022-11-20T13:12:44;14.25;;;5.70;;
12888;SDS011;56848;49.896;11.424;2022-11-20T13:15:21;9.60;;;5.63;;
12888;SDS011;56848;49.896;11.424;2022-11-20T13:18:10;7.68;;;4.85;;
12888;SDS011;56848;49.896;11.424;2022-11-20T13:20:41;8.18;;;5.30;;
12888;SDS011;56848;49.896;11.424;2022-11-20T13:23:08;9.93;;;5.65;;
12888;SDS011;56848;49.896;11.424;2022-11-20T13:25:35;9.23;;;4.93;;
12888;SDS011;56848;49.896;11.424;2022-11-20T13:30:34;10.18;;;5.70;;
12888;SDS011;56848;49.896;11.424;2022-11-20T13:35:33;12.75;;;7.07;;
12888;SDS011;56848;49.896;11.424;2022-11-20T13:40:27;43.05;;;16.08;;
12888;SDS011;56848;49.896;11.424;2022-11-20T13:47:48;10.80;;;6.13;;
12888;SDS011;56848;49.896;11.424;2022-11-20T13:50:14;10.32;;;6.07;;
12888;SDS011;56848;49.896;11.424;2022-11-20T13:58:33;10.48;;;6.43;;
12888;SDS011;56848;49.896;11.424;2022-11-20T14:01:06;12.07;;;6.50;;
12888;SDS011;56848;49.896;11.424;2022-11-20T14:03:41;11.10;;;6.18;;
12888;SDS011;56848;49.896;11.424;2022-11-20T14:08:52;14.10;;;7.80;;
12888;SDS011;56848;49.896;11.424;2022-11-20T14:11:19;13.23;;;7.57;;
12888;SDS011;56848;49.896;11.424;2022-11-20T14:14:19;13.90;;;7.80;;
12888;SDS011;56848;49.896;11.424;2022-11-20T14:16:39;14.68;;;8.20;;
12888;SDS011;56848;49.896;11.424;2022-11-20T14:21:50;11.55;;;7.05;;
12888;SDS011;56848;49.896;11.424;2022-11-20T14:24:21;13.52;;;7.82;;
12888;SDS011;56848;49.896;11.424;2022-11-20T14:26:48;14.93;;;7.43;;
12888;SDS011;56848;49.896;11.424;2022-11-20T14:29:19;15.30;;;7.50;;
12888;SDS011;56848;49.896;11.424;2022-11-20T14:31:51;19.92;;;10.63;;
12888;SDS011;56848;49.896;11.424;2022-11-20T14:34:20;19.07;;;9.37;;
12888;SDS011;56848;49.896;11.424;2022-11-20T14:36:47;21.20;;;9.15;;
12888;SDS011;56848;49.896;11.424;2022-11-20T14:39:20;28.17;;;14.52;;
12888;SDS011;56848;49.896;11.424;2022-11-20T14:41:53;21.20;;;10.00;;
12888;SDS011;56848;49.896;11.424;2022-11-20T14:44:31;19.38;;;9.55;;
12888;SDS011;56848;49.896;11.424;2022-11-20T14:47:02;34.83;;;15.93;;
12888;SDS011;56848;49.896;11.424;2022-11-20T14:49:29;23.42;;;9.70;;
12888;SDS011;56848;49.896;11.424;2022-11-20T14:52:10;27.65;;;11.98;;
12888;SDS011;56848;49.896;11.424;2022-11-20T14:54:48;20.73;;;10.45;;
12888;SDS011;56848;49.896;11.424;2022-11-20T14:57:24;60.65;;;23.30;;
12888;SDS011;56848;49.896;11.424;2022-11-20T15:00:03;20.95;;;10.40;;
12888;SDS011;56848;49.896;11.424;2022-11-20T15:02:49;20.35;;;9.63;;
12888;SDS011;56848;49.896;11.424;2022-11-20T15:05:17;30.10;;;11.88;;
12888;SDS011;56848;49.896;11.424;2022-11-20T15:07:45;22.42;;;10.32;;
12888;SDS011;56848;49.896;11.424;2022-11-20T15:12:49;20.20;;;9.68;;
12888;SDS011;56848;49.896;11.424;2022-11-20T15:18:18;23.23;;;10.20;;
12888;SDS011;56848;49.896;11.424;2022-11-20T15:20:46;22.75;;;10.50;;
12888;SDS011;56848;49.896;11.424;2022-11-20T15:23:13;21.60;;;10.10;;
12888;SDS011;56848;49.896;11.424;2022-11-20T15:25:40;20.73;;;10.65;;
12888;SDS011;56848;49.896;11.424;2022-11-20T15:28:16;24.75;;;10.95;;
12888;SDS011;56848;49.896;11.424;2022-11-20T15:30:48;21.05;;;10.90;;
12888;SDS011;56848;49.896;11.424;2022-11-20T15:33:15;21.85;;;10.30;;
12888;SDS011;56848;49.896;11.424;2022-11-20T15:35:41;18.35;;;9.90;;
12888;SDS011;56848;49.896;11.424;2022-11-20T15:38:07;20.73;;;9.60;;
12888;SDS011;56848;49.896;11.424;2022-11-20T15:40:33;28.47;;;11.47;;
12888;SDS011;56848;49.896;11.424;2022-11-20T15:42:58;19.33;;;9.53;;
12888;SDS011;56848;49.896;11.424;2022-11-20T15:45:34;23.10;;;11.20;;
12888;SDS011;56848;49.896;11.424;2022-11-20T15:48:10;21.02;;;10.35;;
12888;SDS011;56848;49.896;11.424;2022-11-20T15:53:28;27.17;;;12.52;;
12888;SDS011;56848;49.896;11.424;2022-11-20T15:55:53;24.57;;;11.03;;
12888;SDS011;56848;49.896;11.424;2022-11-20T15:58:19;23.57;;;11.87;;
12888;SDS011;56848;49.896;11.424;2022-11-20T16:00:45;22.70;;;11.80;;
12888;SDS011;56848;49.896;11.424;2022-11-20T16:03:11;22.70;;;11.23;;
12888;SDS011;56848;49.896;11.424;2022-11-20T16:05:37;23.75;;;11.60;;
12888;SDS011;56848;49.896;11.424;2022-11-20T16:08:02;20.40;;;10.93;;
12888;SDS011;56848;49.896;11.424;2022-11-20T16:10:28;32.23;;;12.07;;
12888;SDS011;56848;49.896;11.424;2022-11-20T16:12:53;19.63;;;9.70;;
12888;SDS011;56848;49.896;11.424;2022-11-20T16:15:38;23.52;;;11.05;;
12888;SDS011;56848;49.896;11.424;2022-11-20T16:18:16;25.43;;;10.33;;
12888;SDS011;56848;49.896;11.424;2022-11-20T16:20:45;22.95;;;11.07;;
12888;SDS011;56848;49.896;11.424;2022-11-20T16:23:12;27.63;;;12.70;;
12888;SDS011;56848;49.896;11.424;2022-11-20T16:25:38;25.80;;;12.50;;
12888;SDS011;56848;49.896;11.424;2022-11-20T16:28:03;25.77;;;12.10;;
12888;SDS011;56848;49.896;11.424;2022-11-20T16:30:30;27.50;;;13.07;;
12888;SDS011;56848;49.896;11.424;2022-11-20T16:32:57;24.88;;;11.48;;
12888;SDS011;56848;49.896;11.424;2022-11-20T16:35:25;26.10;;;11.27;;
12888;SDS011;56848;49.896;11.424;2022-11-20T16:37:51;29.48;;;12.57;;
12888;SDS011;56848;49.896;11.424;2022-11-20T16:40:17;23.80;;;11.03;;
12888;SDS011;56848;49.896;11.424;2022-11-20T16:42:42;23.17;;;10.77;;
12888;SDS011;56848;49.896;11.424;2022-11-20T16:45:08;27.43;;;11.00;;
12888;SDS011;56848;49.896;11.424;2022-11-20T16:47:34;29.30;;;11.75;;
12888;SDS011;56848;49.896;11.424;2022-11-20T16:50:00;27.37;;;11.40;;
12888;SDS011;56848;49.896;11.424;2022-11-20T16:52:27;26.83;;;10.50;;
12888;SDS011;56848;49.896;11.424;2022-11-20T16:54:52;24.50;;;10.67;;
12888;SDS011;56848;49.896;11.424;2022-11-20T16:57:18;22.53;;;10.70;;
12888;SDS011;56848;49.896;11.424;2022-11-20T16:59:43;24.07;;;10.80;;
12888;SDS011;56848;49.896;11.424;2022-11-20T17:02:09;18.97;;;10.30;;
12888;SDS011;56848;49.896;11.424;2022-11-20T17:04:35;19.47;;;10.40;;
12888;SDS011;56848;49.896;11.424;2022-11-20T17:07:01;21.38;;;10.05;;
12888;SDS011;56848;49.896;11.424;2022-11-20T17:09:27;20.17;;;9.20;;
12888;SDS011;56848;49.896;11.424;2022-11-20T17:11:53;20.03;;;9.83;;
12888;SDS011;56848;49.896;11.424;2022-11-20T17:14:18;22.33;;;9.70;;
12888;SDS011;56848;49.896;11.424;2022-11-20T17:16:44;19.53;;;9.07;;
12888;SDS011;56848;49.896;11.424;2022-11-20T17:19:10;17.40;;;8.50;;
12888;SDS011;56848;49.896;11.424;2022-11-20T17:21:36;14.02;;;7.60;;
12888;SDS011;56848;49.896;11.424;2022-11-20T17:24:03;16.38;;;7.72;;
12888;SDS011;56848;49.896;11.424;2022-11-20T17:26:31;17.27;;;8.75;;
12888;SDS011;56848;49.896;11.424;2022-11-20T17:28:59;18.30;;;8.98;;
12888;SDS011;56848;49.896;11.424;2022-11-20T17:31:25;15.48;;;9.13;;
12888;SDS011;56848;49.896;11.424;2022-11-20T17:33:51;9.98;;;6.10;;
12888;SDS011;56848;49.896;11.424;2022-11-20T17:36:17;13.50;;;6.83;;
12888;SDS011;56848;49.896;11.424;2022-11-20T17:38:44;12.45;;;6.15;;
12888;SDS011;56848;49.896;11.424;2022-11-20T17:41:17;13.47;;;5.97;;
12888;SDS011;56848;49.896;11.424;2022-11-20T17:43:44;9.35;;;5.55;;
12888;SDS011;56848;49.896;11.424;2022-11-20T17:46:14;7.43;;;3.83;;
12888;SDS011;56848;49.896;11.424;2022-11-20T17:48:42;10.18;;;5.45;;
12888;SDS011;56848;49.896;11.424;2022-11-20T17:51:13;12.95;;;6.70;;
12888;SDS011;56848;49.896;11.424;2022-11-20T17:53:39;21.75;;;10.77;;
12888;SDS011;56848;49.896;11.424;2022-11-20T17:56:08;35.50;;;16.00;;
12888;SDS011;56848;49.896;11.424;2022-11-20T17:58:53;14.75;;;7.50;;
12888;SDS011;56848;49.896;11.424;2022-11-20T18:01:18;13.27;;;7.45;;
12888;SDS011;56848;49.896;11.424;2022-11-20T18:03:45;13.65;;;8.20;;
12888;SDS011;56848;49.896;11.424;2022-11-20T18:06:14;20.33;;;8.70;;
12888;SDS011;56848;49.896;11.424;2022-11-20T18:08:41;19.58;;;11.27;;
12888;SDS011;56848;49.896;11.424;2022-11-20T18:11:10;16.85;;;8.18;;
12888;SDS011;56848;49.896;11.424;2022-11-20T18:13:39;13.30;;;6.60;;
12888;SDS011;56848;49.896;11.424;2022-11-20T18:16:24;16.73;;;8.98;;
12888;SDS011;56848;49.896;11.424;2022-11-20T18:18:54;15.45;;;8.02;;
12888;SDS011;56848;49.896;11.424;2022-11-20T18:21:21;16.20;;;8.38;;
12888;SDS011;56848;49.896;11.424;2022-11-20T18:23:48;16.45;;;7.53;;
12888;SDS011;56848;49.896;11.424;2022-11-20T18:26:14;14.65;;;7.95;;
12888;SDS011;56848;49.896;11.424;2022-11-20T18:28:39;13.70;;;7.10;;
12888;SDS011;56848;49.896;11.424;2022-11-20T18:31:05;16.30;;;7.77;;
12888;SDS011;56848;49.896;11.424;2022-11-20T18:33:32;12.23;;;7.63;;
12888;SDS011;56848;49.896;11.424;2022-11-20T18:36:07;12.50;;;7.25;;
12888;SDS011;56848;49.896;11.424;2022-11-20T18:38:38;12.30;;;6.90;;
12888;SDS011;56848;49.896;11.424;2022-11-20T18:41:05;14.48;;;7.40;;
12888;SDS011;56848;49.896;11.424;2022-11-20T18:43:32;11.00;;;7.38;;
12888;SDS011;56848;49.896;11.424;2022-11-20T18:46:17;11.13;;;7.13;;
12888;SDS011;56848;49.896;11.424;2022-11-20T18:48:43;13.38;;;7.85;;
12888;SDS011;56848;49.896;11.424;2022-11-20T18:51:10;15.43;;;7.55;;
12888;SDS011;56848;49.896;11.424;2022-11-20T18:53:38;14.63;;;7.70;;
12888;SDS011;56848;49.896;11.424;2022-11-20T18:56:04;12.57;;;7.23;;
12888;SDS011;56848;49.896;11.424;2022-11-20T18:58:30;17.30;;;5.85;;
12888;SDS011;56848;49.896;11.424;2022-11-20T19:00:55;15.03;;;7.90;;
12888;SDS011;56848;49.896;11.424;2022-11-20T19:03:29;14.15;;;8.63;;
12888;SDS011;56848;49.896;11.424;2022-11-20T19:05:54;11.17;;;7.03;;
12888;SDS011;56848;49.896;11.424;2022-11-20T19:08:20;14.77;;;7.30;;
12888;SDS011;56848;49.896;11.424;2022-11-20T19:10:45;14.30;;;6.67;;
12888;SDS011;56848;49.896;11.424;2022-11-20T19:13:11;15.60;;;7.57;;
12888;SDS011;56848;49.896;11.424;2022-11-20T19:15:36;12.53;;;6.60;;
12888;SDS011;56848;49.896;11.424;2022-11-20T19:18:02;17.90;;;7.53;;
12888;SDS011;56848;49.896;11.424;2022-11-20T19:20:28;14.57;;;7.97;;
12888;SDS011;56848;49.896;11.424;2022-11-20T19:22:53;16.97;;;8.10;;
12888;SDS011;56848;49.896;11.424;2022-11-20T19:25:19;19.80;;;8.50;;
12888;SDS011;56848;49.896;11.424;2022-11-20T19:27:44;13.17;;;7.70;;
12888;SDS011;56848;49.896;11.424;2022-11-20T19:30:10;13.37;;;6.97;;
12888;SDS011;56848;49.896;11.424;2022-11-20T19:32:36;12.13;;;7.00;;
12888;SDS011;56848;49.896;11.424;2022-11-20T19:35:01;13.20;;;8.43;;
12888;SDS011;56848;49.896;11.424;2022-11-20T19:37:27;14.67;;;8.47;;
12888;SDS011;56848;49.896;11.424;2022-11-20T19:39:55;15.60;;;7.47;;
12888;SDS011;56848;49.896;11.424;2022-11-20T19:42:23;16.10;;;8.13;;
12888;SDS011;56848;49.896;11.424;2022-11-20T19:44:49;14.47;;;7.80;;
12888;SDS011;56848;49.896;11.424;2022-11-20T19:47:14;19.93;;;8.60;;
12888;SDS011;56848;49.896;11.424;2022-11-20T19:49:40;18.17;;;8.40;;
12888;SDS011;56848;49.896;11.424;2022-11-20T19:52:06;12.47;;;8.00;;
12888;SDS011;56848;49.896;11.424;2022-11-20T19:54:32;15.03;;;8.10;;
12888;SDS011;56848;49.896;11.424;2022-11-20T19:56:57;13.37;;;7.97;;
12888;SDS011;56848;49.896;11.424;2022-11-20T19:59:23;12.63;;;7.20;;
12888;SDS011;56848;49.896;11.424;2022-11-20T20:01:48;13.73;;;7.97;;
12888;SDS011;56848;49.896;11.424;2022-11-20T20:04:14;14.00;;;8.33;;
12888;SDS011;56848;49.896;11.424;2022-11-20T20:06:39;14.10;;;8.20;;
12888;SDS011;56848;49.896;11.424;2022-11-20T20:09:09;11.33;;;6.93;;
12888;SDS011;56848;49.896;11.424;2022-11-20T20:11:37;15.88;;;8.27;;
12888;SDS011;56848;49.896;11.424;2022-11-20T20:14:03;15.40;;;7.38;;
12888;SDS011;56848;49.896;11.424;2022-11-20T20:16:37;15.73;;;7.93;;
12888;SDS011;56848;49.896;11.424;2022-11-20T20:19:04;15.03;;;8.20;;
12888;SDS011;56848;49.896;11.424;2022-11-20T20:21:30;13.30;;;7.50;;
12888;SDS011;56848;49.896;11.424;2022-11-20T20:23:58;15.15;;;8.98;;
12888;SDS011;56848;49.896;11.424;2022-11-20T20:26:25;16.73;;;8.57;;
12888;SDS011;56848;49.896;11.424;2022-11-20T20:28:52;16.40;;;8.60;;
12888;SDS011;56848;49.896;11.424;2022-11-20T20:31:19;17.17;;;8.45;;
12888;SDS011;56848;49.896;11.424;2022-11-20T20:33:47;14.45;;;7.78;;
12888;SDS011;56848;49.896;11.424;2022-11-20T20:36:13;16.33;;;8.10;;
12888;SDS011;56848;49.896;11.424;2022-11-20T20:38:41;15.20;;;7.53;;
12888;SDS011;56848;49.896;11.424;2022-11-20T20:41:08;11.68;;;4.72;;
12888;SDS011;56848;49.896;11.424;2022-11-20T20:43:34;14.70;;;7.10;;
12888;SDS011;56848;49.896;11.424;2022-11-20T20:46:20;12.35;;;6.63;;
12888;SDS011;56848;49.896;11.424;2022-11-20T20:48:46;9.57;;;5.65;;
12888;SDS011;56848;49.896;11.424;2022-11-20T20:51:12;13.33;;;7.47;;
12888;SDS011;56848;49.896;11.424;2022-11-20T20:53:38;11.48;;;6.25;;
12888;SDS011;56848;49.896;11.424;2022-11-20T20:56:03;7.00;;;4.90;;
12888;SDS011;56848;49.896;11.424;2022-11-20T20:58:29;14.80;;;8.23;;
12888;SDS011;56848;49.896;11.424;2022-11-20T21:01:01;14.13;;;7.47;;
12888;SDS011;56848;49.896;11.424;2022-11-20T21:03:32;18.05;;;7.55;;
12888;SDS011;56848;49.896;11.424;2022-11-20T21:05:58;11.95;;;6.45;;
12888;SDS011;56848;49.896;11.424;2022-11-20T21:08:24;13.17;;;6.93;;
12888;SDS011;56848;49.896;11.424;2022-11-20T21:10:52;14.68;;;6.75;;
12888;SDS011;56848;49.896;11.424;2022-11-20T21:13:19;12.27;;;6.97;;
12888;SDS011;56848;49.896;11.424;2022-11-20T21:15:46;11.30;;;6.28;;